Time;durP1;ratioP1;P1;durP2;ratioP2;P2;SDS_P1;SDS_P2;PMS_P1;PMS_P2;Temp;Humidity;BMP_temperature;BMP_pressure;BME280_temperature;BME280_humidity;BME280_pressure;Samples;Min_cycle;Max_cycle;Signal;HPM_P1;HPM_P2
2022/12/01 00:01:49;;;;;;;52.97;44.03;;;;;;;;;;4990656;28;20281;-88
2022/12/01 00:04:14;;;;;;;52.77;43.33;;;;;;;;;;4986715;28;20225;-87
2022/12/01 00:06:42;;;;;;;57.20;43.07;;;;;;;;;;4965399;28;20222;-87
2022/12/01 00:11:52;;;;;;;52.47;42.17;;;;;;;;;;4994561;28;20280;-86
2022/12/01 00:14:17;;;;;;;50.97;41.63;;;;;;;;;;4956776;28;20226;-87
2022/12/01 00:16:43;;;;;;;55.13;43.30;;;;;;;;;;4999520;28;20231;-87
2022/12/01 00:19:08;;;;;;;54.87;42.53;;;;;;;;;;4973422;28;20237;-88
2022/12/01 00:21:36;;;;;;;59.73;44.40;;;;;;;;;;5006302;28;20225;-86
2022/12/01 00:24:04;;;;;;;53.30;42.13;;;;;;;;;;4993828;28;20221;-86
2022/12/01 00:26:32;;;;;;;56.60;43.20;;;;;;;;;;4981440;28;20218;-86
2022/12/01 00:29:00;;;;;;;52.20;42.57;;;;;;;;;;4987700;28;20792;-87
2022/12/01 00:31:28;;;;;;;50.10;41.67;;;;;;;;;;4990777;28;20627;-86
2022/12/01 00:33:56;;;;;;;50.80;42.20;;;;;;;;;;4991499;28;20233;-87
2022/12/01 00:36:21;;;;;;;51.30;41.73;;;;;;;;;;4985087;28;20764;-87
2022/12/01 00:38:52;;;;;;;52.93;43.17;;;;;;;;;;4983608;28;20249;-87
2022/12/01 00:41:20;;;;;;;52.83;42.83;;;;;;;;;;4999238;28;20613;-86
2022/12/01 00:43:46;;;;;;;53.47;42.63;;;;;;;;;;4989043;28;20690;-86
2022/12/01 00:46:11;;;;;;;55.90;41.73;;;;;;;;;;4989933;28;20275;-87
2022/12/01 00:48:37;;;;;;;55.97;43.23;;;;;;;;;;4987292;28;20693;-86
2022/12/01 00:51:02;;;;;;;51.63;42.63;;;;;;;;;;4984923;28;20270;-87
2022/12/01 00:53:28;;;;;;;56.13;42.33;;;;;;;;;;4989943;28;20242;-86
2022/12/01 00:55:56;;;;;;;53.10;44.00;;;;;;;;;;4985355;28;20266;-86
2022/12/01 00:58:21;;;;;;;55.80;44.70;;;;;;;;;;5003316;28;20244;-85
2022/12/01 01:00:49;;;;;;;61.13;45.47;;;;;;;;;;4995098;28;20214;-87
2022/12/01 01:03:18;;;;;;;51.27;42.47;;;;;;;;;;4994054;28;20213;-86
2022/12/01 01:05:43;;;;;;;53.67;44.50;;;;;;;;;;5009526;28;20229;-86
2022/12/01 01:08:10;;;;;;;64.40;45.33;;;;;;;;;;4989083;28;20220;-86
2022/12/01 01:10:42;;;;;;;61.43;44.67;;;;;;;;;;5008867;28;20232;-86
2022/12/01 01:13:08;;;;;;;62.17;46.27;;;;;;;;;;4982258;28;20318;-87
2022/12/01 01:15:34;;;;;;;58.20;46.97;;;;;;;;;;4998737;28;20233;-87
2022/12/01 01:18:00;;;;;;;58.87;44.53;;;;;;;;;;4978864;28;20584;-86
2022/12/01 01:20:25;;;;;;;55.47;44.17;;;;;;;;;;4993139;28;20221;-86
2022/12/01 01:22:53;;;;;;;61.23;45.93;;;;;;;;;;4987911;28;20261;-87
2022/12/01 01:25:19;;;;;;;59.60;46.27;;;;;;;;;;4952663;28;20218;-86
2022/12/01 01:27:47;;;;;;;59.33;46.93;;;;;;;;;;4970542;28;20229;-87
2022/12/01 01:30:17;;;;;;;63.67;48.10;;;;;;;;;;4969571;28;20660;-86
2022/12/01 01:32:45;;;;;;;62.97;46.90;;;;;;;;;;4990175;28;20229;-87
2022/12/01 01:35:11;;;;;;;71.50;49.47;;;;;;;;;;4993936;28;20238;-88
2022/12/01 01:37:38;;;;;;;70.67;47.77;;;;;;;;;;4993291;28;20229;-87
2022/12/01 01:40:05;;;;;;;63.90;48.37;;;;;;;;;;4961046;28;20213;-88
2022/12/01 01:42:33;;;;;;;67.63;47.80;;;;;;;;;;4977502;28;20305;-87
2022/12/01 01:45:01;;;;;;;63.10;47.10;;;;;;;;;;5001334;28;20248;-89
2022/12/01 01:47:37;;;;;;;59.83;47.83;;;;;;;;;;4970269;28;20230;-87
2022/12/01 01:50:08;;;;;;;65.43;47.47;;;;;;;;;;4998434;28;20620;-88
2022/12/01 01:52:35;;;;;;;61.17;47.27;;;;;;;;;;4976375;28;20947;-87
2022/12/01 01:55:03;;;;;;;62.53;47.37;;;;;;;;;;5007249;28;20225;-88
2022/12/01 01:57:29;;;;;;;59.93;47.73;;;;;;;;;;4986623;28;20241;-87
2022/12/01 02:00:06;;;;;;;68.40;48.63;;;;;;;;;;4992455;28;20228;-88
2022/12/01 02:02:39;;;;;;;72.17;49.50;;;;;;;;;;5007374;28;20654;-88
2022/12/01 02:05:09;;;;;;;63.73;47.30;;;;;;;;;;4981611;28;20253;-88
2022/12/01 02:07:36;;;;;;;66.13;49.10;;;;;;;;;;4997080;28;20229;-87
2022/12/01 02:10:02;;;;;;;72.67;51.47;;;;;;;;;;4959482;28;20225;-86
2022/12/01 02:12:55;;;;;;;66.97;48.40;;;;;;;;;;4988399;28;20230;-87
2022/12/01 02:15:32;;;;;;;67.40;49.33;;;;;;;;;;4993126;28;20225;-89
2022/12/01 02:18:22;;;;;;;64.97;48.33;;;;;;;;;;4990545;28;20249;-87
2022/12/01 02:21:18;;;;;;;71.10;49.53;;;;;;;;;;5004276;28;20256;-88
2022/12/01 02:24:11;;;;;;;65.83;47.73;;;;;;;;;;4985693;28;20237;-88
2022/12/01 02:27:00;;;;;;;66.37;47.80;;;;;;;;;;5000978;28;20271;-88
2022/12/01 02:29:37;;;;;;;66.23;48.23;;;;;;;;;;4991933;28;20228;-86
2022/12/01 02:32:18;;;;;;;64.03;49.07;;;;;;;;;;5014810;28;20251;-87
2022/12/01 02:34:49;;;;;;;68.70;48.83;;;;;;;;;;4989235;28;20241;-87
2022/12/01 02:37:33;;;;;;;69.97;47.90;;;;;;;;;;4975955;28;20230;-88
2022/12/01 02:40:11;;;;;;;59.60;46.83;;;;;;;;;;5016944;28;20597;-86
2022/12/01 02:43:01;;;;;;;65.77;47.87;;;;;;;;;;4998752;28;20287;-87
2022/12/01 02:48:33;;;;;;;66.50;48.60;;;;;;;;;;4973465;28;20718;-86
2022/12/01 02:51:02;;;;;;;70.00;48.07;;;;;;;;;;4990173;28;20245;-87
2022/12/01 02:53:28;;;;;;;69.47;49.40;;;;;;;;;;4994314;28;20596;-87
2022/12/01 02:55:54;;;;;;;67.20;49.20;;;;;;;;;;4987493;28;20229;-85
2022/12/01 02:58:25;;;;;;;72.47;50.70;;;;;;;;;;4976633;28;20309;-88
2022/12/01 03:01:16;;;;;;;67.37;49.30;;;;;;;;;;4986111;28;20276;-86
2022/12/01 03:04:03;;;;;;;68.90;49.33;;;;;;;;;;5000783;28;20308;-88
2022/12/01 03:06:48;;;;;;;67.03;48.60;;;;;;;;;;4996462;28;20329;-86
2022/12/01 03:09:36;;;;;;;70.87;47.90;;;;;;;;;;5002295;28;20240;-88
2022/12/01 03:12:11;;;;;;;72.93;48.20;;;;;;;;;;4990816;28;20225;-88
2022/12/01 03:14:39;;;;;;;58.90;46.57;;;;;;;;;;5004296;28;20243;-86
2022/12/01 03:17:07;;;;;;;67.40;47.57;;;;;;;;;;4992330;28;20320;-86
2022/12/01 03:19:40;;;;;;;63.67;45.53;;;;;;;;;;4960923;28;20236;-88
2022/12/01 03:22:27;;;;;;;70.57;47.70;;;;;;;;;;4985648;28;20256;-88
2022/12/01 03:24:55;;;;;;;68.60;47.73;;;;;;;;;;4989725;28;20237;-88
2022/12/01 03:27:23;;;;;;;63.37;46.43;;;;;;;;;;4984921;28;20221;-85
2022/12/01 03:29:51;;;;;;;64.00;45.60;;;;;;;;;;4999467;28;20225;-87
2022/12/01 03:32:19;;;;;;;66.03;47.20;;;;;;;;;;5007993;28;20329;-87
2022/12/01 03:34:48;;;;;;;72.37;49.93;;;;;;;;;;4986823;28;20277;-87
2022/12/01 03:37:32;;;;;;;64.00;47.17;;;;;;;;;;5036440;23;20223;-75
2022/12/01 03:39:59;;;;;;;72.47;49.13;;;;;;;;;;4937355;28;20246;-75
2022/12/01 03:42:53;;;;;;;77.30;49.97;;;;;;;;;;4905627;29;20231;-75
2022/12/01 03:45:47;;;;;;;70.83;48.13;;;;;;;;;;4923966;28;20306;-76
2022/12/01 03:48:15;;;;;;;68.70;51.20;;;;;;;;;;4922284;28;20303;-76
2022/12/01 03:51:13;;;;;;;72.10;50.13;;;;;;;;;;4920052;29;20596;-76
2022/12/01 03:54:05;;;;;;;68.80;49.03;;;;;;;;;;4914282;29;20218;-77
2022/12/01 03:56:36;;;;;;;72.43;50.63;;;;;;;;;;4905796;29;20314;-76
2022/12/01 03:59:05;;;;;;;72.63;49.80;;;;;;;;;;4917427;29;20591;-75
2022/12/01 04:01:31;;;;;;;75.57;49.70;;;;;;;;;;4905995;29;20255;-76
2022/12/01 04:04:06;;;;;;;83.53;54.17;;;;;;;;;;4935255;28;20228;-76
2022/12/01 04:06:32;;;;;;;72.53;50.73;;;;;;;;;;4905953;29;20623;-76
2022/12/01 04:09:00;;;;;;;82.23;52.90;;;;;;;;;;4906884;29;20577;-76
2022/12/01 04:14:13;;;;;;;82.03;53.53;;;;;;;;;;4923456;29;20228;-77
2022/12/01 04:16:40;;;;;;;85.20;55.70;;;;;;;;;;4907089;29;20229;-77
2022/12/01 04:19:08;;;;;;;86.23;54.30;;;;;;;;;;4909792;28;20325;-75
2022/12/01 04:21:36;;;;;;;79.47;55.33;;;;;;;;;;4920766;29;20701;-77
2022/12/01 04:24:02;;;;;;;83.47;55.10;;;;;;;;;;4910954;29;20231;-76
2022/12/01 04:26:29;;;;;;;84.83;52.87;;;;;;;;;;4907026;29;20306;-77
2022/12/01 04:28:56;;;;;;;82.37;53.97;;;;;;;;;;4899528;29;20234;-73
2022/12/01 04:31:24;;;;;;;79.77;50.67;;;;;;;;;;4931648;28;20238;-73
2022/12/01 04:33:52;;;;;;;70.53;50.07;;;;;;;;;;4907287;29;20227;-76
2022/12/01 04:36:20;;;;;;;72.80;48.87;;;;;;;;;;4936702;28;20223;-77
2022/12/01 04:38:48;;;;;;;73.40;49.83;;;;;;;;;;4902686;29;20246;-77
2022/12/01 04:41:16;;;;;;;78.60;50.70;;;;;;;;;;4906952;28;20235;-77
2022/12/01 04:43:41;;;;;;;79.97;50.77;;;;;;;;;;4871703;29;20227;-76
2022/12/01 04:46:11;;;;;;;81.10;53.10;;;;;;;;;;4890806;29;20314;-76
2022/12/01 04:48:40;;;;;;;85.60;51.10;;;;;;;;;;4906453;29;20332;-77
2022/12/01 04:51:06;;;;;;;72.00;48.70;;;;;;;;;;4891491;28;20224;-77
2022/12/01 04:53:34;;;;;;;79.67;49.87;;;;;;;;;;4890790;29;20215;-76
2022/12/01 04:56:02;;;;;;;71.70;47.20;;;;;;;;;;4912139;29;20642;-76
2022/12/01 04:58:28;;;;;;;77.07;51.37;;;;;;;;;;4890924;29;20235;-77
2022/12/01 05:01:06;;;;;;;74.73;48.57;;;;;;;;;;4891871;29;20230;-74
2022/12/01 05:03:34;;;;;;;74.40;47.20;;;;;;;;;;4906252;29;20247;-75
2022/12/01 05:08:47;;;;;;;74.67;47.70;;;;;;;;;;4984269;28;20586;-86
2022/12/01 05:11:13;;;;;;;71.20;47.37;;;;;;;;;;4962803;28;20213;-83
2022/12/01 05:13:39;;;;;;;75.70;48.77;;;;;;;;;;4956054;28;20221;-83
2022/12/01 05:16:18;;;;;;;77.73;48.70;;;;;;;;;;4964117;28;20661;-82
2022/12/01 05:20:55;;;;;;;75.40;50.00;;;;;;;;;;4958102;28;20241;-84
2022/12/01 05:21:37;;;;;;;81.43;48.57;;;;;;;;;;4962677;28;20218;-84
2022/12/01 05:24:03;;;;;;;75.33;47.67;;;;;;;;;;4950482;28;20699;-83
2022/12/01 05:26:31;;;;;;;71.50;46.17;;;;;;;;;;4949694;28;20232;-82
2022/12/01 05:28:56;;;;;;;75.40;46.03;;;;;;;;;;4954009;28;20229;-83
2022/12/01 05:31:24;;;;;;;77.43;48.30;;;;;;;;;;4964247;28;20275;-84
2022/12/01 05:33:50;;;;;;;74.60;46.20;;;;;;;;;;4971224;28;20277;-83
2022/12/01 05:36:15;;;;;;;74.47;46.83;;;;;;;;;;4961214;28;20228;-84
2022/12/01 05:38:41;;;;;;;70.13;45.73;;;;;;;;;;4963713;28;20232;-82
2022/12/01 05:41:59;;;;;;;74.50;46.10;;;;;;;;;;4983503;28;20236;-83
2022/12/01 05:44:29;;;;;;;72.57;45.30;;;;;;;;;;4992809;28;20687;-83
2022/12/01 05:46:55;;;;;;;71.43;46.13;;;;;;;;;;4959236;28;20769;-82
2022/12/01 05:49:20;;;;;;;74.63;48.10;;;;;;;;;;4946447;28;20225;-83
2022/12/01 05:51:46;;;;;;;81.17;46.43;;;;;;;;;;4974505;28;20270;-82
2022/12/01 05:54:11;;;;;;;75.03;46.93;;;;;;;;;;4961798;28;20229;-83
2022/12/01 05:56:46;;;;;;;86.53;46.87;;;;;;;;;;4945223;28;20229;-83
2022/12/01 05:59:14;;;;;;;76.43;46.53;;;;;;;;;;4963912;28;20217;-82
2022/12/01 06:01:39;;;;;;;67.23;44.00;;;;;;;;;;4960768;28;20237;-80
2022/12/01 06:04:07;;;;;;;73.33;43.07;;;;;;;;;;4947394;28;20309;-84
2022/12/01 06:06:40;;;;;;;78.50;44.13;;;;;;;;;;4943097;28;20217;-84
2022/12/01 06:09:07;;;;;;;72.73;42.90;;;;;;;;;;4940487;28;20645;-84
2022/12/01 06:11:34;;;;;;;77.93;44.40;;;;;;;;;;4960931;28;20221;-83
2022/12/01 06:14:00;;;;;;;70.03;44.73;;;;;;;;;;4966191;28;20236;-82
2022/12/01 06:16:26;;;;;;;73.90;44.83;;;;;;;;;;4934080;28;20256;-82
2022/12/01 06:18:51;;;;;;;71.13;43.83;;;;;;;;;;4943407;28;20237;-83
2022/12/01 06:21:19;;;;;;;63.40;42.37;;;;;;;;;;4955064;28;20236;-84
2022/12/01 06:23:45;;;;;;;63.73;42.93;;;;;;;;;;4965874;28;20208;-81
2022/12/01 06:26:19;;;;;;;71.87;43.40;;;;;;;;;;4952308;28;20222;-81
2022/12/01 06:28:47;;;;;;;62.23;40.47;;;;;;;;;;4990341;28;20241;-82
2022/12/01 06:31:15;;;;;;;64.23;40.93;;;;;;;;;;4976503;28;20248;-81
2022/12/01 06:33:40;;;;;;;61.63;40.10;;;;;;;;;;4969337;28;20217;-83
2022/12/01 06:36:07;;;;;;;64.83;40.13;;;;;;;;;;4966099;28;20232;-85
2022/12/01 06:38:33;;;;;;;65.30;41.80;;;;;;;;;;4951789;28;20221;-84
2022/12/01 06:40:59;;;;;;;68.70;40.10;;;;;;;;;;4951424;28;20237;-82
2022/12/01 06:43:27;;;;;;;57.90;38.93;;;;;;;;;;4953941;28;20297;-83
2022/12/01 06:45:53;;;;;;;64.43;39.30;;;;;;;;;;4968834;28;20228;-82
2022/12/01 06:48:18;;;;;;;60.53;37.63;;;;;;;;;;4963479;28;20774;-84
2022/12/01 06:51:02;;;;;;;59.73;37.93;;;;;;;;;;4955190;28;20225;-82
2022/12/01 06:53:32;;;;;;;58.07;39.20;;;;;;;;;;4952555;28;21072;-83
2022/12/01 06:56:01;;;;;;;60.13;38.90;;;;;;;;;;4972530;28;20222;-83
2022/12/01 06:58:27;;;;;;;65.37;37.80;;;;;;;;;;4969400;28;20258;-81
2022/12/01 07:00:53;;;;;;;57.90;38.70;;;;;;;;;;4982047;28;20257;-81
2022/12/01 07:03:18;;;;;;;55.53;35.90;;;;;;;;;;4963379;28;20221;-80
2022/12/01 07:05:44;;;;;;;60.30;37.47;;;;;;;;;;4959673;28;20264;-79
2022/12/01 07:08:14;;;;;;;57.47;38.40;;;;;;;;;;4954946;28;20257;-79
2022/12/01 07:10:44;;;;;;;67.20;38.23;;;;;;;;;;4953752;28;20232;-79
2022/12/01 07:13:10;;;;;;;60.97;37.20;;;;;;;;;;4975988;28;20221;-80
2022/12/01 07:15:37;;;;;;;65.10;38.77;;;;;;;;;;4956469;28;20583;-79
2022/12/01 07:18:02;;;;;;;64.47;36.60;;;;;;;;;;4971560;28;20220;-81
2022/12/01 07:20:28;;;;;;;61.53;38.50;;;;;;;;;;4957003;28;20225;-80
2022/12/01 07:22:54;;;;;;;73.17;40.70;;;;;;;;;;4958432;28;20248;-78
2022/12/01 07:25:21;;;;;;;69.73;42.40;;;;;;;;;;4972294;28;20312;-79
2022/12/01 07:27:47;;;;;;;69.67;40.63;;;;;;;;;;4969333;28;20229;-79
2022/12/01 07:30:15;;;;;;;65.50;39.93;;;;;;;;;;4956547;28;20292;-78
2022/12/01 07:32:48;;;;;;;70.27;40.60;;;;;;;;;;4973973;28;20274;-77
2022/12/01 07:35:13;;;;;;;70.23;40.37;;;;;;;;;;4969816;28;20222;-77
2022/12/01 07:37:41;;;;;;;64.13;39.07;;;;;;;;;;4957736;28;20225;-83
2022/12/01 07:40:09;;;;;;;68.20;39.67;;;;;;;;;;4951478;28;20217;-80
2022/12/01 07:42:34;;;;;;;59.93;36.67;;;;;;;;;;4969292;28;20225;-80
2022/12/01 07:45:20;;;;;;;60.33;38.40;;;;;;;;;;4970035;28;20226;-77
2022/12/01 07:47:46;;;;;;;60.47;36.57;;;;;;;;;;4935356;28;20321;-83
2022/12/01 07:50:12;;;;;;;60.57;37.43;;;;;;;;;;4939048;28;20687;-78
2022/12/01 07:52:39;;;;;;;54.67;36.43;;;;;;;;;;4936697;28;20248;-80
2022/12/01 07:55:12;;;;;;;61.97;39.30;;;;;;;;;;4956711;28;20720;-79
2022/12/01 07:58:25;;;;;;;64.73;39.10;;;;;;;;;;4957915;28;20229;-78
2022/12/01 08:00:53;;;;;;;61.57;35.87;;;;;;;;;;4968183;28;20576;-80
2022/12/01 08:03:19;;;;;;;57.20;36.20;;;;;;;;;;4959344;28;20232;-81
2022/12/01 08:05:44;;;;;;;73.77;38.87;;;;;;;;;;4955098;28;20603;-78
2022/12/01 08:08:12;;;;;;;69.17;37.90;;;;;;;;;;4971000;28;20249;-79
2022/12/01 08:10:42;;;;;;;57.83;35.97;;;;;;;;;;4960508;28;20232;-79
2022/12/01 08:13:08;;;;;;;63.97;37.87;;;;;;;;;;4988508;28;20232;-81
2022/12/01 08:15:34;;;;;;;59.37;35.97;;;;;;;;;;4953664;28;20261;-81
2022/12/01 08:18:01;;;;;;;67.87;36.40;;;;;;;;;;4968053;28;20229;-80
2022/12/01 08:20:29;;;;;;;55.53;34.80;;;;;;;;;;4969726;28;20280;-80
2022/12/01 08:22:54;;;;;;;57.23;35.07;;;;;;;;;;4971924;28;20218;-81
2022/12/01 08:25:22;;;;;;;52.40;34.30;;;;;;;;;;4966895;28;20232;-81
2022/12/01 08:27:48;;;;;;;53.47;33.93;;;;;;;;;;4940013;23;20818;-76
2022/12/01 08:30:14;;;;;;;58.47;34.30;;;;;;;;;;4920488;28;20226;-76
2022/12/01 08:32:41;;;;;;;57.17;34.57;;;;;;;;;;4901133;28;20708;-74
2022/12/01 08:35:09;;;;;;;57.73;36.43;;;;;;;;;;4901176;28;20233;-75
2022/12/01 08:37:37;;;;;;;51.87;34.60;;;;;;;;;;4930264;28;20214;-74
2022/12/01 08:40:03;;;;;;;65.03;38.53;;;;;;;;;;4914028;28;20901;-74
2022/12/01 08:42:29;;;;;;;69.77;37.63;;;;;;;;;;4918531;28;20308;-74
2022/12/01 08:44:57;;;;;;;64.87;36.07;;;;;;;;;;4949619;28;20271;-75
2022/12/01 08:47:23;;;;;;;65.00;37.37;;;;;;;;;;4936252;28;20226;-74
2022/12/01 08:49:51;;;;;;;64.10;36.60;;;;;;;;;;4921660;28;20285;-75
2022/12/01 08:52:19;;;;;;;61.07;34.90;;;;;;;;;;4920215;28;20314;-73
2022/12/01 08:54:49;;;;;;;61.50;35.70;;;;;;;;;;4910875;28;20226;-74
2022/12/01 08:57:15;;;;;;;63.53;34.57;;;;;;;;;;4935425;28;20680;-75
2022/12/01 08:59:42;;;;;;;63.70;36.57;;;;;;;;;;4913297;28;20230;-74
2022/12/01 09:02:15;;;;;;;64.33;35.70;;;;;;;;;;4934277;28;20712;-74
2022/12/01 09:04:41;;;;;;;62.67;35.80;;;;;;;;;;4935474;28;20345;-74
2022/12/01 09:07:09;;;;;;;67.10;36.87;;;;;;;;;;4934875;28;20236;-74
2022/12/01 09:09:35;;;;;;;62.70;36.17;;;;;;;;;;4935903;28;20244;-74
2022/12/01 09:12:06;;;;;;;70.03;37.80;;;;;;;;;;4935603;28;20604;-75
2022/12/01 09:14:38;;;;;;;69.57;35.57;;;;;;;;;;4919489;28;20834;-77
2022/12/01 09:17:08;;;;;;;65.57;36.03;;;;;;;;;;4901674;28;20265;-74
2022/12/01 09:19:34;;;;;;;56.40;35.57;;;;;;;;;;4929092;28;20232;-75
2022/12/01 09:22:00;;;;;;;56.57;34.40;;;;;;;;;;4898267;28;20226;-75
2022/12/01 09:24:25;;;;;;;74.55;45.05;;;;;;;;;;4906049;28;20442;-75
2022/12/01 09:26:58;;;;;;;67.83;37.97;;;;;;;;;;4909755;28;20230;-74
2022/12/01 09:29:23;;;;;;;60.23;34.40;;;;;;;;;;4900506;28;20226;-74
2022/12/01 09:31:54;;;;;;;55.37;34.17;;;;;;;;;;4919414;28;21621;-74
2022/12/01 09:34:19;;;;;;;51.87;33.00;;;;;;;;;;4952223;28;20230;-75
2022/12/01 09:36:45;;;;;;;54.67;33.03;;;;;;;;;;4901754;28;20585;-74
2022/12/01 09:39:12;;;;;;;56.40;31.73;;;;;;;;;;4931285;28;20230;-75
2022/12/01 09:41:49;;;;;;;47.37;31.27;;;;;;;;;;4933077;28;20309;-76
2022/12/01 09:44:33;;;;;;;46.23;28.70;;;;;;;;;;4935706;28;20309;-76
2022/12/01 09:47:29;;;;;;;41.10;28.23;;;;;;;;;;4910397;28;20332;-75
2022/12/01 09:50:11;;;;;;;43.40;28.67;;;;;;;;;;4909316;28;20277;-75
2022/12/01 09:52:44;;;;;;;42.77;27.67;;;;;;;;;;4922099;28;20308;-76
2022/12/01 09:55:14;;;;;;;34.97;23.43;;;;;;;;;;4938023;28;20226;-74
2022/12/01 09:57:39;;;;;;;32.17;24.37;;;;;;;;;;4921413;28;20229;-76
2022/12/01 10:00:24;;;;;;;33.80;24.60;;;;;;;;;;4918289;28;20301;-76
2022/12/01 10:03:08;;;;;;;35.13;24.83;;;;;;;;;;4918318;28;20226;-75
2022/12/01 10:05:42;;;;;;;31.90;23.80;;;;;;;;;;4902165;28;20341;-74
2022/12/01 10:08:15;;;;;;;34.10;25.00;;;;;;;;;;4913535;28;20264;-75
2022/12/01 10:10:48;;;;;;;37.70;24.93;;;;;;;;;;4926478;28;20236;-75
2022/12/01 10:13:18;;;;;;;37.60;25.47;;;;;;;;;;4920856;28;20222;-74
2022/12/01 10:15:53;;;;;;;45.70;27.80;;;;;;;;;;4905302;28;20262;-75
2022/12/01 10:18:30;;;;;;;37.43;26.80;;;;;;;;;;4940092;28;20275;-76
2022/12/01 10:21:01;;;;;;;32.97;25.60;;;;;;;;;;4916762;28;20233;-76
2022/12/01 10:23:51;;;;;;;35.47;24.77;;;;;;;;;;4930284;28;20227;-75
2022/12/01 10:26:19;;;;;;;42.67;25.93;;;;;;;;;;4943393;28;20329;-76
2022/12/01 10:29:00;;;;;;;33.60;25.13;;;;;;;;;;4927992;28;20237;-74
2022/12/01 10:31:52;;;;;;;39.17;23.47;;;;;;;;;;4923780;28;20222;-75
2022/12/01 10:34:25;;;;;;;35.73;23.87;;;;;;;;;;4927739;28;20224;-76
2022/12/01 10:36:53;;;;;;;29.03;21.83;;;;;;;;;;4935339;28;20233;-74
2022/12/01 10:39:25;;;;;;;26.97;20.17;;;;;;;;;;4908620;28;20305;-73
2022/12/01 10:41:56;;;;;;;29.40;20.80;;;;;;;;;;4936889;28;20738;-73
2022/12/01 10:44:22;;;;;;;32.20;20.60;;;;;;;;;;4927644;28;20225;-72
2022/12/01 10:46:54;;;;;;;30.00;21.03;;;;;;;;;;4945541;28;20218;-74
2022/12/01 10:49:20;;;;;;;25.77;19.63;;;;;;;;;;4926288;28;20746;-74
2022/12/01 10:51:51;;;;;;;25.90;18.40;;;;;;;;;;4916677;28;20236;-74
2022/12/01 10:54:17;;;;;;;25.10;19.17;;;;;;;;;;4923326;28;20218;-74
2022/12/01 10:56:46;;;;;;;26.20;20.30;;;;;;;;;;4893167;28;20248;-74
2022/12/01 10:59:26;;;;;;;22.97;19.30;;;;;;;;;;4911224;28;20232;-73
2022/12/01 11:01:52;;;;;;;21.83;17.97;;;;;;;;;;4917268;28;21309;-74
2022/12/01 11:05:06;;;;;;;20.73;17.57;;;;;;;;;;4902611;28;20277;-75
2022/12/01 11:07:44;;;;;;;25.50;17.83;;;;;;;;;;4913242;28;20232;-73
2022/12/01 11:10:17;;;;;;;23.63;19.13;;;;;;;;;;4919583;28;20337;-76
2022/12/01 11:12:45;;;;;;;27.30;19.17;;;;;;;;;;4903525;28;20234;-75
2022/12/01 11:15:40;;;;;;;23.87;18.30;;;;;;;;;;4923064;28;20233;-73
2022/12/01 11:18:23;;;;;;;25.77;17.93;;;;;;;;;;4909192;28;22666;-73
2022/12/01 11:21:08;;;;;;;22.53;17.53;;;;;;;;;;4883051;28;20230;-74
2022/12/01 11:23:37;;;;;;;21.43;17.87;;;;;;;;;;4903483;28;20249;-73
2022/12/01 11:26:10;;;;;;;21.80;17.40;;;;;;;;;;4914548;28;20229;-74
2022/12/01 11:28:39;;;;;;;22.03;16.03;;;;;;;;;;4918342;28;20230;-76
2022/12/01 11:31:07;;;;;;;21.13;16.70;;;;;;;;;;4906580;28;20230;-74
2022/12/01 11:33:48;;;;;;;19.03;15.67;;;;;;;;;;4905014;28;20234;-74
2022/12/01 11:36:20;;;;;;;19.30;15.70;;;;;;;;;;4919579;28;20808;-74
2022/12/01 11:38:46;;;;;;;20.63;16.47;;;;;;;;;;4903505;28;20330;-73
2022/12/01 11:41:38;;;;;;;20.97;16.50;;;;;;;;;;4901552;28;20222;-74
2022/12/01 11:44:05;;;;;;;21.60;15.70;;;;;;;;;;4892810;28;20226;-74
2022/12/01 11:46:38;;;;;;;18.33;16.30;;;;;;;;;;4926453;28;20251;-73
2022/12/01 11:49:03;;;;;;;18.70;15.87;;;;;;;;;;4913706;28;20230;-75
2022/12/01 11:51:37;;;;;;;22.93;16.83;;;;;;;;;;4932837;28;20245;-73
2022/12/01 11:54:16;;;;;;;23.33;17.13;;;;;;;;;;4918668;28;20309;-75
2022/12/01 11:56:42;;;;;;;19.97;16.50;;;;;;;;;;4930723;28;20233;-74
2022/12/01 11:59:12;;;;;;;21.30;17.10;;;;;;;;;;4933774;28;20257;-75
2022/12/01 12:02:02;;;;;;;21.73;17.10;;;;;;;;;;4935791;28;20230;-74
2022/12/01 12:04:35;;;;;;;18.57;15.93;;;;;;;;;;4959761;28;20292;-75
2022/12/01 12:07:25;;;;;;;21.80;16.47;;;;;;;;;;4944167;28;20226;-74
2022/12/01 12:09:59;;;;;;;19.97;16.10;;;;;;;;;;4944714;28;20240;-76
2022/12/01 12:12:25;;;;;;;22.40;16.83;;;;;;;;;;4942987;28;20233;-74
2022/12/01 12:15:15;;;;;;;18.87;15.77;;;;;;;;;;4960460;28;20230;-74
2022/12/01 12:18:02;;;;;;;20.87;16.43;;;;;;;;;;4943338;28;20650;-74
2022/12/01 12:20:41;;;;;;;22.33;15.90;;;;;;;;;;4959608;28;20232;-76
2022/12/01 12:23:33;;;;;;;20.03;16.80;;;;;;;;;;4918113;28;20222;-76
2022/12/01 12:26:19;;;;;;;20.47;16.30;;;;;;;;;;4950841;28;20301;-75
2022/12/01 12:29:16;;;;;;;21.77;16.90;;;;;;;;;;4907976;28;20265;-75
2022/12/01 12:32:08;;;;;;;19.77;16.57;;;;;;;;;;4907963;28;22578;-76
2022/12/01 12:34:53;;;;;;;21.30;16.87;;;;;;;;;;4922654;28;20245;-76
2022/12/01 12:37:30;;;;;;;21.23;15.27;;;;;;;;;;4942856;28;20296;-77
2022/12/01 12:40:11;;;;;;;17.83;15.13;;;;;;;;;;4912827;28;20234;-74
2022/12/01 12:42:48;;;;;;;19.20;15.83;;;;;;;;;;4926418;28;20232;-74
2022/12/01 12:45:17;;;;;;;20.20;14.47;;;;;;;;;;4927026;28;20308;-74
2022/12/01 12:48:15;;;;;;;17.33;15.40;;;;;;;;;;4918667;28;20254;-76
2022/12/01 12:51:12;;;;;;;20.23;15.73;;;;;;;;;;4886043;28;20234;-75
2022/12/01 12:53:41;;;;;;;21.00;15.67;;;;;;;;;;4925239;28;20316;-75
2022/12/01 12:56:09;;;;;;;19.00;16.73;;;;;;;;;;4893019;28;20238;-75
2022/12/01 12:58:38;;;;;;;25.60;16.60;;;;;;;;;;4909245;28;20369;-76
2022/12/01 13:01:20;;;;;;;24.23;16.43;;;;;;;;;;4910460;28;21060;-75
2022/12/01 13:03:56;;;;;;;22.87;16.50;;;;;;;;;;4914748;28;20704;-75
2022/12/01 13:06:33;;;;;;;23.50;16.53;;;;;;;;;;4925389;28;20244;-75
2022/12/01 13:09:12;;;;;;;21.50;16.50;;;;;;;;;;4927789;28;20907;-75
2022/12/01 13:12:07;;;;;;;22.97;16.20;;;;;;;;;;4913297;28;20292;-75
2022/12/01 13:14:42;;;;;;;26.23;17.47;;;;;;;;;;4943975;28;20226;-75
2022/12/01 13:17:15;;;;;;;23.40;18.23;;;;;;;;;;4933556;28;20598;-75
2022/12/01 13:19:41;;;;;;;26.40;17.80;;;;;;;;;;4921702;28;20764;-74
2022/12/01 13:22:06;;;;;;;29.73;19.87;;;;;;;;;;4936139;28;20240;-74
2022/12/01 13:24:32;;;;;;;27.57;18.70;;;;;;;;;;4921883;28;20289;-75
2022/12/01 13:27:04;;;;;;;29.43;18.93;;;;;;;;;;4922869;28;20222;-74
2022/12/01 13:29:37;;;;;;;27.73;19.97;;;;;;;;;;4940248;28;20241;-74
2022/12/01 13:32:06;;;;;;;28.53;19.13;;;;;;;;;;4912982;28;20273;-76
2022/12/01 13:34:37;;;;;;;30.43;20.60;;;;;;;;;;4944189;28;20238;-76
2022/12/01 13:37:08;;;;;;;30.40;19.90;;;;;;;;;;4939351;28;20388;-75
2022/12/01 13:39:39;;;;;;;28.27;18.83;;;;;;;;;;4939727;28;20254;-75
2022/12/01 13:42:23;;;;;;;30.20;19.30;;;;;;;;;;4926122;28;20232;-75
2022/12/01 13:44:58;;;;;;;35.40;19.00;;;;;;;;;;4946274;28;20813;-76
2022/12/01 13:47:23;;;;;;;29.70;23.30;;;;;;;;;;4930470;28;20214;-76
2022/12/01 13:49:50;;;;;;;35.77;25.73;;;;;;;;;;4947605;28;20256;-77
2022/12/01 13:52:15;;;;;;;39.10;23.00;;;;;;;;;;4931421;28;20726;-74
2022/12/01 13:55:08;;;;;;;28.83;18.73;;;;;;;;;;4951212;28;20238;-77
2022/12/01 13:57:42;;;;;;;31.10;19.50;;;;;;;;;;4951918;28;20676;-79
2022/12/01 14:00:30;;;;;;;30.37;18.63;;;;;;;;;;4965627;28;20321;-75
2022/12/01 14:03:18;;;;;;;32.07;20.87;;;;;;;;;;4944999;28;20807;-76
2022/12/01 14:05:52;;;;;;;27.97;18.23;;;;;;;;;;4952570;28;20758;-76
2022/12/01 14:08:48;;;;;;;28.90;19.50;;;;;;;;;;4953604;28;20321;-75
2022/12/01 14:11:19;;;;;;;28.50;18.37;;;;;;;;;;4906990;28;20226;-76
2022/12/01 14:13:55;;;;;;;31.07;19.60;;;;;;;;;;4934191;28;20251;-75
2022/12/01 14:16:23;;;;;;;29.00;20.00;;;;;;;;;;4930929;28;20241;-77
2022/12/01 14:18:55;;;;;;;30.43;18.63;;;;;;;;;;4903618;28;20979;-75
2022/12/01 14:21:48;;;;;;;29.73;18.50;;;;;;;;;;4897051;28;20273;-76
2022/12/01 14:24:29;;;;;;;32.37;18.50;;;;;;;;;;4897022;28;20226;-77
2022/12/01 14:26:54;;;;;;;29.80;18.77;;;;;;;;;;4917420;28;20393;-78
2022/12/01 14:29:31;;;;;;;27.40;18.33;;;;;;;;;;4913082;28;20610;-76
2022/12/01 14:31:59;;;;;;;31.53;18.50;;;;;;;;;;4904414;28;20221;-76
2022/12/01 14:34:25;;;;;;;28.57;17.43;;;;;;;;;;4916746;28;20285;-76
2022/12/01 14:36:53;;;;;;;38.70;20.03;;;;;;;;;;4879525;28;20226;-77
2022/12/01 14:39:25;;;;;;;26.80;17.90;;;;;;;;;;4884324;28;20344;-75
2022/12/01 14:42:12;;;;;;;29.00;19.10;;;;;;;;;;4908815;28;20704;-77
2022/12/01 14:44:46;;;;;;;29.90;20.53;;;;;;;;;;4878226;28;20317;-77
2022/12/01 14:47:16;;;;;;;28.87;18.13;;;;;;;;;;4897822;28;20221;-77
2022/12/01 14:49:57;;;;;;;36.27;18.87;;;;;;;;;;4934789;28;20230;-75
2022/12/01 14:52:31;;;;;;;29.83;19.03;;;;;;;;;;4904943;28;20790;-76
2022/12/01 14:55:02;;;;;;;30.33;19.37;;;;;;;;;;4919726;28;20233;-75
2022/12/01 14:57:34;;;;;;;30.90;19.30;;;;;;;;;;4909611;28;20222;-76